sensor_id;sensor_type;location;lat;lon;timestamp;P1;durP1;ratioP1;P2;durP2;ratioP2
81336;SDS011;70799;48.000;10.584;2023-10-08T00:01:01;5.25;;;2.10;;
81336;SDS011;70799;48.000;10.584;2023-10-08T00:03:38;5.07;;;2.03;;
81336;SDS011;70799;48.000;10.584;2023-10-08T00:06:21;5.57;;;2.53;;
81336;SDS011;70799;48.000;10.584;2023-10-08T00:08:57;4.75;;;2.42;;
81336;SDS011;70799;48.000;10.584;2023-10-08T00:11:38;4.82;;;1.90;;
81336;SDS011;70799;48.000;10.584;2023-10-08T00:14:15;5.95;;;2.30;;
81336;SDS011;70799;48.000;10.584;2023-10-08T00:16:53;4.18;;;1.90;;
81336;SDS011;70799;48.000;10.584;2023-10-08T00:19:29;5.20;;;2.35;;
81336;SDS011;70799;48.000;10.584;2023-10-08T00:22:11;5.68;;;2.40;;
81336;SDS011;70799;48.000;10.584;2023-10-08T00:24:50;5.38;;;2.30;;
81336;SDS011;70799;48.000;10.584;2023-10-08T00:27:30;6.20;;;2.13;;
81336;SDS011;70799;48.000;10.584;2023-10-08T00:30:12;5.03;;;1.98;;
81336;SDS011;70799;48.000;10.584;2023-10-08T00:32:50;7.55;;;2.42;;
81336;SDS011;70799;48.000;10.584;2023-10-08T00:35:26;5.28;;;2.15;;
81336;SDS011;70799;48.000;10.584;2023-10-08T00:38:02;5.45;;;2.10;;
81336;SDS011;70799;48.000;10.584;2023-10-08T00:40:40;6.20;;;2.10;;
81336;SDS011;70799;48.000;10.584;2023-10-08T00:43:31;5.03;;;2.22;;
81336;SDS011;70799;48.000;10.584;2023-10-08T00:46:11;6.13;;;1.92;;
81336;SDS011;70799;48.000;10.584;2023-10-08T00:48:55;4.93;;;1.95;;
81336;SDS011;70799;48.000;10.584;2023-10-08T00:51:43;5.97;;;1.95;;
81336;SDS011;70799;48.000;10.584;2023-10-08T00:54:19;4.78;;;2.22;;
81336;SDS011;70799;48.000;10.584;2023-10-08T00:56:57;4.63;;;1.73;;
81336;SDS011;70799;48.000;10.584;2023-10-08T00:59:38;7.07;;;2.47;;
81336;SDS011;70799;48.000;10.584;2023-10-08T01:02:19;5.07;;;1.90;;
81336;SDS011;70799;48.000;10.584;2023-10-08T01:04:59;4.70;;;2.28;;
81336;SDS011;70799;48.000;10.584;2023-10-08T01:07:35;5.63;;;2.10;;
81336;SDS011;70799;48.000;10.584;2023-10-08T01:10:15;4.82;;;2.17;;
81336;SDS011;70799;48.000;10.584;2023-10-08T01:12:57;4.68;;;1.83;;
81336;SDS011;70799;48.000;10.584;2023-10-08T01:15:45;4.72;;;1.70;;
81336;SDS011;70799;48.000;10.584;2023-10-08T01:18:23;5.45;;;1.98;;
81336;SDS011;70799;48.000;10.584;2023-10-08T01:21:03;3.95;;;1.50;;
81336;SDS011;70799;48.000;10.584;2023-10-08T01:23:40;5.43;;;2.00;;
81336;SDS011;70799;48.000;10.584;2023-10-08T01:26:20;6.40;;;2.40;;
81336;SDS011;70799;48.000;10.584;2023-10-08T01:28:56;4.82;;;1.80;;
81336;SDS011;70799;48.000;10.584;2023-10-08T01:31:34;5.78;;;2.13;;
81336;SDS011;70799;48.000;10.584;2023-10-08T01:34:12;5.22;;;2.13;;
81336;SDS011;70799;48.000;10.584;2023-10-08T01:36:50;4.68;;;2.10;;
81336;SDS011;70799;48.000;10.584;2023-10-08T01:39:26;4.90;;;1.90;;
81336;SDS011;70799;48.000;10.584;2023-10-08T01:42:04;4.80;;;1.92;;
81336;SDS011;70799;48.000;10.584;2023-10-08T01:44:47;6.10;;;1.80;;
81336;SDS011;70799;48.000;10.584;2023-10-08T01:47:27;6.32;;;2.00;;
81336;SDS011;70799;48.000;10.584;2023-10-08T01:50:03;5.93;;;2.05;;
81336;SDS011;70799;48.000;10.584;2023-10-08T01:52:53;6.20;;;2.10;;
81336;SDS011;70799;48.000;10.584;2023-10-08T01:55:36;5.35;;;2.05;;
81336;SDS011;70799;48.000;10.584;2023-10-08T01:58:21;6.05;;;2.42;;
81336;SDS011;70799;48.000;10.584;2023-10-08T02:00:57;4.93;;;2.30;;
81336;SDS011;70799;48.000;10.584;2023-10-08T02:03:33;5.47;;;2.22;;
81336;SDS011;70799;48.000;10.584;2023-10-08T02:06:09;5.97;;;2.10;;
81336;SDS011;70799;48.000;10.584;2023-10-08T02:08:45;5.10;;;2.13;;
81336;SDS011;70799;48.000;10.584;2023-10-08T02:11:22;5.60;;;1.88;;
81336;SDS011;70799;48.000;10.584;2023-10-08T02:14:08;4.93;;;1.90;;
81336;SDS011;70799;48.000;10.584;2023-10-08T02:17:26;5.57;;;2.08;;
81336;SDS011;70799;48.000;10.584;2023-10-08T02:20:13;6.45;;;2.08;;
81336;SDS011;70799;48.000;10.584;2023-10-08T02:23:13;5.82;;;2.00;;
81336;SDS011;70799;48.000;10.584;2023-10-08T02:26:21;4.70;;;1.70;;
81336;SDS011;70799;48.000;10.584;2023-10-08T02:29:15;6.05;;;2.05;;
81336;SDS011;70799;48.000;10.584;2023-10-08T02:31:51;4.95;;;1.98;;
81336;SDS011;70799;48.000;10.584;2023-10-08T02:34:27;6.45;;;2.45;;
81336;SDS011;70799;48.000;10.584;2023-10-08T02:37:03;4.70;;;1.88;;
81336;SDS011;70799;48.000;10.584;2023-10-08T02:39:39;4.22;;;1.73;;
81336;SDS011;70799;48.000;10.584;2023-10-08T02:42:15;6.40;;;2.28;;
81336;SDS011;70799;48.000;10.584;2023-10-08T02:44:52;5.65;;;2.00;;
81336;SDS011;70799;48.000;10.584;2023-10-08T02:47:34;5.07;;;1.63;;
81336;SDS011;70799;48.000;10.584;2023-10-08T02:50:10;4.82;;;1.75;;
81336;SDS011;70799;48.000;10.584;2023-10-08T02:52:49;4.88;;;1.88;;
81336;SDS011;70799;48.000;10.584;2023-10-08T02:55:25;6.18;;;2.28;;
81336;SDS011;70799;48.000;10.584;2023-10-08T02:58:06;7.05;;;2.05;;
81336;SDS011;70799;48.000;10.584;2023-10-08T03:00:47;7.13;;;2.33;;
81336;SDS011;70799;48.000;10.584;2023-10-08T03:03:25;5.80;;;2.42;;
81336;SDS011;70799;48.000;10.584;2023-10-08T03:06:04;6.35;;;1.98;;
81336;SDS011;70799;48.000;10.584;2023-10-08T03:08:43;6.47;;;1.90;;
81336;SDS011;70799;48.000;10.584;2023-10-08T03:11:20;4.45;;;1.95;;
81336;SDS011;70799;48.000;10.584;2023-10-08T03:13:58;5.00;;;1.55;;
81336;SDS011;70799;48.000;10.584;2023-10-08T03:16:35;5.85;;;2.03;;
81336;SDS011;70799;48.000;10.584;2023-10-08T03:19:12;6.05;;;1.83;;
81336;SDS011;70799;48.000;10.584;2023-10-08T03:21:50;9.15;;;2.42;;
81336;SDS011;70799;48.000;10.584;2023-10-08T03:24:28;5.82;;;2.05;;
81336;SDS011;70799;48.000;10.584;2023-10-08T03:27:11;5.00;;;1.58;;
81336;SDS011;70799;48.000;10.584;2023-10-08T03:29:52;5.93;;;2.10;;
81336;SDS011;70799;48.000;10.584;2023-10-08T03:32:32;5.13;;;1.60;;
81336;SDS011;70799;48.000;10.584;2023-10-08T03:35:09;5.15;;;1.90;;
81336;SDS011;70799;48.000;10.584;2023-10-08T03:37:45;6.53;;;2.08;;
81336;SDS011;70799;48.000;10.584;2023-10-08T03:40:22;5.85;;;1.80;;
81336;SDS011;70799;48.000;10.584;2023-10-08T03:43:14;5.85;;;2.03;;
81336;SDS011;70799;48.000;10.584;2023-10-08T03:45:55;5.15;;;2.20;;
81336;SDS011;70799;48.000;10.584;2023-10-08T03:48:33;5.88;;;2.30;;
81336;SDS011;70799;48.000;10.584;2023-10-08T03:51:11;6.00;;;1.70;;
81336;SDS011;70799;48.000;10.584;2023-10-08T03:53:51;6.72;;;1.67;;
81336;SDS011;70799;48.000;10.584;2023-10-08T03:56:47;6.57;;;2.38;;
81336;SDS011;70799;48.000;10.584;2023-10-08T03:59:24;4.78;;;1.80;;
81336;SDS011;70799;48.000;10.584;2023-10-08T04:02:12;6.63;;;1.65;;
81336;SDS011;70799;48.000;10.584;2023-10-08T04:04:56;6.78;;;2.03;;
81336;SDS011;70799;48.000;10.584;2023-10-08T04:07:32;6.15;;;1.60;;
81336;SDS011;70799;48.000;10.584;2023-10-08T04:10:34;5.53;;;2.17;;
81336;SDS011;70799;48.000;10.584;2023-10-08T04:13:34;5.88;;;1.90;;
81336;SDS011;70799;48.000;10.584;2023-10-08T04:16:17;4.72;;;1.50;;
81336;SDS011;70799;48.000;10.584;2023-10-08T04:18:54;4.38;;;1.70;;
81336;SDS011;70799;48.000;10.584;2023-10-08T04:24:14;5.43;;;1.55;;
81336;SDS011;70799;48.000;10.584;2023-10-08T04:26:52;5.78;;;1.63;;
81336;SDS011;70799;48.000;10.584;2023-10-08T04:29:29;8.23;;;2.15;;
81336;SDS011;70799;48.000;10.584;2023-10-08T04:32:08;5.35;;;1.65;;
81336;SDS011;70799;48.000;10.584;2023-10-08T04:34:54;3.47;;;1.50;;
81336;SDS011;70799;48.000;10.584;2023-10-08T04:37:34;4.70;;;1.70;;
81336;SDS011;70799;48.000;10.584;2023-10-08T04:40:12;5.55;;;1.70;;
81336;SDS011;70799;48.000;10.584;2023-10-08T04:42:50;5.40;;;1.80;;
81336;SDS011;70799;48.000;10.584;2023-10-08T04:45:26;5.93;;;1.58;;
81336;SDS011;70799;48.000;10.584;2023-10-08T04:48:06;6.05;;;1.60;;
81336;SDS011;70799;48.000;10.584;2023-10-08T04:50:47;5.93;;;1.83;;
81336;SDS011;70799;48.000;10.584;2023-10-08T04:53:32;5.22;;;1.52;;
81336;SDS011;70799;48.000;10.584;2023-10-08T04:56:14;6.50;;;1.90;;
81336;SDS011;70799;48.000;10.584;2023-10-08T04:58:51;5.50;;;1.60;;
81336;SDS011;70799;48.000;10.584;2023-10-08T05:01:28;5.18;;;1.60;;
81336;SDS011;70799;48.000;10.584;2023-10-08T05:04:10;6.38;;;2.42;;
81336;SDS011;70799;48.000;10.584;2023-10-08T05:07:02;6.35;;;1.95;;
81336;SDS011;70799;48.000;10.584;2023-10-08T05:09:51;8.00;;;1.83;;
81336;SDS011;70799;48.000;10.584;2023-10-08T05:12:43;4.45;;;1.35;;
81336;SDS011;70799;48.000;10.584;2023-10-08T05:15:22;5.63;;;2.00;;
81336;SDS011;70799;48.000;10.584;2023-10-08T05:18:09;7.00;;;1.85;;
81336;SDS011;70799;48.000;10.584;2023-10-08T05:23:57;6.07;;;1.63;;
81336;SDS011;70799;48.000;10.584;2023-10-08T05:26:45;5.18;;;1.77;;
81336;SDS011;70799;48.000;10.584;2023-10-08T05:29:32;6.80;;;1.88;;
81336;SDS011;70799;48.000;10.584;2023-10-08T05:32:20;6.65;;;1.52;;
81336;SDS011;70799;48.000;10.584;2023-10-08T05:35:24;6.15;;;1.80;;
81336;SDS011;70799;48.000;10.584;2023-10-08T05:38:11;5.15;;;1.77;;
81336;SDS011;70799;48.000;10.584;2023-10-08T05:40:54;5.43;;;2.10;;
81336;SDS011;70799;48.000;10.584;2023-10-08T05:43:49;8.38;;;2.28;;
81336;SDS011;70799;48.000;10.584;2023-10-08T05:46:37;5.80;;;1.83;;
81336;SDS011;70799;48.000;10.584;2023-10-08T05:49:38;5.97;;;1.98;;
81336;SDS011;70799;48.000;10.584;2023-10-08T05:52:26;6.78;;;1.98;;
81336;SDS011;70799;48.000;10.584;2023-10-08T05:55:23;5.03;;;1.70;;
81336;SDS011;70799;48.000;10.584;2023-10-08T05:58:04;5.70;;;1.77;;
81336;SDS011;70799;48.000;10.584;2023-10-08T06:01:17;7.25;;;2.15;;
81336;SDS011;70799;48.000;10.584;2023-10-08T06:04:11;5.88;;;1.73;;
81336;SDS011;70799;48.000;10.584;2023-10-08T06:07:03;6.50;;;1.65;;
81336;SDS011;70799;48.000;10.584;2023-10-08T06:09:55;8.02;;;1.70;;
81336;SDS011;70799;48.000;10.584;2023-10-08T06:12:37;6.38;;;1.50;;
81336;SDS011;70799;48.000;10.584;2023-10-08T06:15:22;5.45;;;1.73;;
81336;SDS011;70799;48.000;10.584;2023-10-08T06:18:16;6.43;;;2.10;;
81336;SDS011;70799;48.000;10.584;2023-10-08T06:21:12;7.65;;;2.17;;
81336;SDS011;70799;48.000;10.584;2023-10-08T06:23:51;6.53;;;1.85;;
81336;SDS011;70799;48.000;10.584;2023-10-08T06:26:28;6.55;;;2.40;;
81336;SDS011;70799;48.000;10.584;2023-10-08T06:29:07;6.72;;;1.90;;
81336;SDS011;70799;48.000;10.584;2023-10-08T06:31:59;5.28;;;1.80;;
81336;SDS011;70799;48.000;10.584;2023-10-08T06:34:36;7.85;;;2.20;;
81336;SDS011;70799;48.000;10.584;2023-10-08T06:37:12;5.95;;;2.13;;
81336;SDS011;70799;48.000;10.584;2023-10-08T06:39:51;6.30;;;1.98;;
81336;SDS011;70799;48.000;10.584;2023-10-08T06:42:29;8.52;;;1.80;;
81336;SDS011;70799;48.000;10.584;2023-10-08T06:45:07;6.45;;;1.77;;
81336;SDS011;70799;48.000;10.584;2023-10-08T06:47:46;9.52;;;2.15;;
81336;SDS011;70799;48.000;10.584;2023-10-08T06:50:23;7.88;;;2.00;;
81336;SDS011;70799;48.000;10.584;2023-10-08T06:53:02;8.18;;;1.67;;
81336;SDS011;70799;48.000;10.584;2023-10-08T06:55:41;7.30;;;1.63;;
81336;SDS011;70799;48.000;10.584;2023-10-08T06:58:17;8.77;;;1.90;;
81336;SDS011;70799;48.000;10.584;2023-10-08T07:00:53;9.55;;;2.10;;
81336;SDS011;70799;48.000;10.584;2023-10-08T07:03:32;7.13;;;1.90;;
81336;SDS011;70799;48.000;10.584;2023-10-08T07:06:10;8.55;;;2.30;;
81336;SDS011;70799;48.000;10.584;2023-10-08T07:08:58;10.25;;;2.55;;
81336;SDS011;70799;48.000;10.584;2023-10-08T07:11:39;7.35;;;1.75;;
81336;SDS011;70799;48.000;10.584;2023-10-08T07:14:18;6.88;;;1.98;;
81336;SDS011;70799;48.000;10.584;2023-10-08T07:19:52;6.85;;;1.88;;
81336;SDS011;70799;48.000;10.584;2023-10-08T07:22:29;6.28;;;2.30;;
81336;SDS011;70799;48.000;10.584;2023-10-08T07:25:06;6.68;;;1.55;;
81336;SDS011;70799;48.000;10.584;2023-10-08T07:27:46;6.60;;;2.03;;
81336;SDS011;70799;48.000;10.584;2023-10-08T07:30:22;6.80;;;1.65;;
81336;SDS011;70799;48.000;10.584;2023-10-08T07:33:04;7.75;;;2.30;;
81336;SDS011;70799;48.000;10.584;2023-10-08T07:35:50;7.05;;;1.83;;
81336;SDS011;70799;48.000;10.584;2023-10-08T07:38:29;6.65;;;2.22;;
81336;SDS011;70799;48.000;10.584;2023-10-08T07:41:06;8.43;;;2.50;;
81336;SDS011;70799;48.000;10.584;2023-10-08T07:43:47;9.13;;;2.83;;
81336;SDS011;70799;48.000;10.584;2023-10-08T07:46:28;8.93;;;2.33;;
81336;SDS011;70799;48.000;10.584;2023-10-08T07:49:04;8.90;;;2.13;;
81336;SDS011;70799;48.000;10.584;2023-10-08T07:54:23;8.02;;;2.08;;
81336;SDS011;70799;48.000;10.584;2023-10-08T07:57:00;7.40;;;2.17;;
81336;SDS011;70799;48.000;10.584;2023-10-08T07:59:45;8.48;;;1.50;;
81336;SDS011;70799;48.000;10.584;2023-10-08T08:02:23;7.82;;;1.60;;
81336;SDS011;70799;48.000;10.584;2023-10-08T08:04:59;7.85;;;2.15;;
81336;SDS011;70799;48.000;10.584;2023-10-08T08:07:35;9.07;;;1.90;;
81336;SDS011;70799;48.000;10.584;2023-10-08T08:10:12;13.02;;;2.17;;
81336;SDS011;70799;48.000;10.584;2023-10-08T08:12:48;7.85;;;2.38;;
81336;SDS011;70799;48.000;10.584;2023-10-08T08:15:29;8.18;;;2.28;;
81336;SDS011;70799;48.000;10.584;2023-10-08T08:18:09;9.68;;;2.03;;
81336;SDS011;70799;48.000;10.584;2023-10-08T08:20:54;6.18;;;2.15;;
81336;SDS011;70799;48.000;10.584;2023-10-08T08:23:34;8.65;;;2.38;;
81336;SDS011;70799;48.000;10.584;2023-10-08T08:26:10;10.68;;;2.38;;
81336;SDS011;70799;48.000;10.584;2023-10-08T08:28:59;10.25;;;2.33;;
81336;SDS011;70799;48.000;10.584;2023-10-08T08:31:41;7.07;;;2.50;;
81336;SDS011;70799;48.000;10.584;2023-10-08T08:34:18;9.93;;;2.03;;
81336;SDS011;70799;48.000;10.584;2023-10-08T08:36:55;6.22;;;2.03;;
81336;SDS011;70799;48.000;10.584;2023-10-08T08:39:34;6.85;;;2.28;;
81336;SDS011;70799;48.000;10.584;2023-10-08T08:42:10;10.07;;;2.83;;
81336;SDS011;70799;48.000;10.584;2023-10-08T08:44:46;11.85;;;2.30;;
81336;SDS011;70799;48.000;10.584;2023-10-08T08:47:23;8.07;;;2.30;;
81336;SDS011;70799;48.000;10.584;2023-10-08T08:50:02;7.47;;;2.25;;
81336;SDS011;70799;48.000;10.584;2023-10-08T08:52:40;11.48;;;2.45;;
81336;SDS011;70799;48.000;10.584;2023-10-08T08:55:18;6.05;;;1.80;;
81336;SDS011;70799;48.000;10.584;2023-10-08T08:57:54;6.63;;;2.20;;
81336;SDS011;70799;48.000;10.584;2023-10-08T09:00:30;11.77;;;2.25;;
81336;SDS011;70799;48.000;10.584;2023-10-08T09:03:06;8.35;;;2.50;;
81336;SDS011;70799;48.000;10.584;2023-10-08T09:05:45;7.88;;;1.90;;
81336;SDS011;70799;48.000;10.584;2023-10-08T09:08:27;7.90;;;2.20;;
81336;SDS011;70799;48.000;10.584;2023-10-08T09:11:05;7.07;;;2.25;;
81336;SDS011;70799;48.000;10.584;2023-10-08T09:13:42;7.68;;;2.33;;
81336;SDS011;70799;48.000;10.584;2023-10-08T09:16:18;10.82;;;1.80;;
81336;SDS011;70799;48.000;10.584;2023-10-08T09:18:55;7.63;;;1.92;;
81336;SDS011;70799;48.000;10.584;2023-10-08T09:21:34;12.13;;;2.22;;
81336;SDS011;70799;48.000;10.584;2023-10-08T09:24:10;8.93;;;2.67;;
81336;SDS011;70799;48.000;10.584;2023-10-08T09:26:46;8.90;;;2.60;;
81336;SDS011;70799;48.000;10.584;2023-10-08T09:29:23;9.60;;;1.88;;
81336;SDS011;70799;48.000;10.584;2023-10-08T09:31:59;8.25;;;2.08;;
81336;SDS011;70799;48.000;10.584;2023-10-08T09:34:38;8.65;;;2.38;;
81336;SDS011;70799;48.000;10.584;2023-10-08T09:37:12;9.25;;;2.22;;
81336;SDS011;70799;48.000;10.584;2023-10-08T09:39:49;8.15;;;1.83;;
81336;SDS011;70799;48.000;10.584;2023-10-08T09:42:25;8.18;;;2.60;;
81336;SDS011;70799;48.000;10.584;2023-10-08T09:45:02;9.77;;;3.55;;
81336;SDS011;70799;48.000;10.584;2023-10-08T09:47:42;7.93;;;2.33;;
81336;SDS011;70799;48.000;10.584;2023-10-08T09:50:30;8.68;;;2.42;;
81336;SDS011;70799;48.000;10.584;2023-10-08T09:53:09;8.43;;;2.42;;
81336;SDS011;70799;48.000;10.584;2023-10-08T09:55:55;11.85;;;2.55;;
81336;SDS011;70799;48.000;10.584;2023-10-08T09:58:33;10.20;;;2.92;;
81336;SDS011;70799;48.000;10.584;2023-10-08T10:01:09;15.80;;;2.78;;
81336;SDS011;70799;48.000;10.584;2023-10-08T10:03:46;11.40;;;3.05;;
81336;SDS011;70799;48.000;10.584;2023-10-08T10:06:22;6.70;;;1.75;;
81336;SDS011;70799;48.000;10.584;2023-10-08T10:08:58;9.13;;;2.10;;
81336;SDS011;70799;48.000;10.584;2023-10-08T10:11:38;10.32;;;2.53;;
81336;SDS011;70799;48.000;10.584;2023-10-08T10:14:14;8.25;;;2.30;;
81336;SDS011;70799;48.000;10.584;2023-10-08T10:17:12;9.80;;;2.20;;
81336;SDS011;70799;48.000;10.584;2023-10-08T10:20:12;9.43;;;2.45;;
81336;SDS011;70799;48.000;10.584;2023-10-08T10:22:48;9.77;;;2.75;;
81336;SDS011;70799;48.000;10.584;2023-10-08T10:25:33;10.27;;;2.83;;
81336;SDS011;70799;48.000;10.584;2023-10-08T10:28:21;8.70;;;2.63;;
81336;SDS011;70799;48.000;10.584;2023-10-08T10:30:57;12.52;;;2.85;;
81336;SDS011;70799;48.000;10.584;2023-10-08T10:33:33;10.27;;;2.72;;
81336;SDS011;70799;48.000;10.584;2023-10-08T10:36:12;9.80;;;2.50;;
81336;SDS011;70799;48.000;10.584;2023-10-08T10:38:49;10.63;;;2.70;;
81336;SDS011;70799;48.000;10.584;2023-10-08T10:41:26;12.07;;;3.15;;
81336;SDS011;70799;48.000;10.584;2023-10-08T10:44:03;8.73;;;2.65;;
81336;SDS011;70799;48.000;10.584;2023-10-08T10:46:45;11.07;;;2.30;;
81336;SDS011;70799;48.000;10.584;2023-10-08T10:49:23;11.25;;;2.95;;
81336;SDS011;70799;48.000;10.584;2023-10-08T10:52:04;9.43;;;2.80;;
81336;SDS011;70799;48.000;10.584;2023-10-08T10:54:52;12.52;;;2.30;;
81336;SDS011;70799;48.000;10.584;2023-10-08T10:57:33;11.32;;;2.83;;
81336;SDS011;70799;48.000;10.584;2023-10-08T11:00:16;10.30;;;2.75;;
81336;SDS011;70799;48.000;10.584;2023-10-08T11:03:17;16.00;;;3.05;;
81336;SDS011;70799;48.000;10.584;2023-10-08T11:05:57;10.23;;;2.60;;
81336;SDS011;70799;48.000;10.584;2023-10-08T11:08:38;9.95;;;2.33;;
81336;SDS011;70799;48.000;10.584;2023-10-08T11:11:19;11.82;;;3.00;;
81336;SDS011;70799;48.000;10.584;2023-10-08T11:14:03;10.20;;;2.97;;
81336;SDS011;70799;48.000;10.584;2023-10-08T11:16:48;11.45;;;2.85;;
81336;SDS011;70799;48.000;10.584;2023-10-08T11:19:24;9.18;;;2.53;;
81336;SDS011;70799;48.000;10.584;2023-10-08T11:22:02;11.77;;;2.53;;
81336;SDS011;70799;48.000;10.584;2023-10-08T11:24:39;9.73;;;2.53;;
81336;SDS011;70799;48.000;10.584;2023-10-08T11:27:20;10.23;;;2.58;;
81336;SDS011;70799;48.000;10.584;2023-10-08T11:30:09;8.63;;;2.75;;
81336;SDS011;70799;48.000;10.584;2023-10-08T11:32:46;7.20;;;2.63;;
81336;SDS011;70799;48.000;10.584;2023-10-08T11:35:22;12.82;;;2.58;;
81336;SDS011;70799;48.000;10.584;2023-10-08T11:38:00;13.95;;;2.72;;
81336;SDS011;70799;48.000;10.584;2023-10-08T11:40:36;14.25;;;2.85;;
81336;SDS011;70799;48.000;10.584;2023-10-08T11:43:24;9.45;;;2.53;;
81336;SDS011;70799;48.000;10.584;2023-10-08T11:46:00;10.20;;;2.65;;
81336;SDS011;70799;48.000;10.584;2023-10-08T11:48:37;10.73;;;2.30;;
81336;SDS011;70799;48.000;10.584;2023-10-08T11:51:19;11.18;;;2.33;;
81336;SDS011;70799;48.000;10.584;2023-10-08T11:54:00;10.00;;;2.55;;
81336;SDS011;70799;48.000;10.584;2023-10-08T11:56:38;12.93;;;2.47;;
81336;SDS011;70799;48.000;10.584;2023-10-08T11:59:15;11.30;;;2.33;;
81336;SDS011;70799;48.000;10.584;2023-10-08T12:01:51;16.30;;;2.95;;
81336;SDS011;70799;48.000;10.584;2023-10-08T12:04:28;14.93;;;2.80;;
81336;SDS011;70799;48.000;10.584;2023-10-08T12:07:05;12.00;;;2.70;;
81336;SDS011;70799;48.000;10.584;2023-10-08T12:09:41;11.05;;;2.63;;
81336;SDS011;70799;48.000;10.584;2023-10-08T12:12:21;11.50;;;2.45;;
81336;SDS011;70799;48.000;10.584;2023-10-08T12:14:59;10.70;;;2.92;;
81336;SDS011;70799;48.000;10.584;2023-10-08T12:17:40;11.60;;;2.83;;
81336;SDS011;70799;48.000;10.584;2023-10-08T12:20:25;11.38;;;2.47;;
81336;SDS011;70799;48.000;10.584;2023-10-08T12:23:06;12.48;;;2.53;;
81336;SDS011;70799;48.000;10.584;2023-10-08T12:25:43;8.88;;;2.20;;
81336;SDS011;70799;48.000;10.584;2023-10-08T12:28:25;10.20;;;2.35;;
81336;SDS011;70799;48.000;10.584;2023-10-08T12:31:08;9.10;;;2.45;;
81336;SDS011;70799;48.000;10.584;2023-10-08T12:33:48;9.43;;;2.05;;
81336;SDS011;70799;48.000;10.584;2023-10-08T12:36:33;8.70;;;2.03;;
81336;SDS011;70799;48.000;10.584;2023-10-08T12:39:16;14.05;;;2.45;;
81336;SDS011;70799;48.000;10.584;2023-10-08T12:41:59;9.80;;;2.38;;
81336;SDS011;70799;48.000;10.584;2023-10-08T12:45:02;13.32;;;1.77;;
81336;SDS011;70799;48.000;10.584;2023-10-08T12:47:49;11.27;;;1.75;;
81336;SDS011;70799;48.000;10.584;2023-10-08T12:50:27;8.82;;;2.15;;
81336;SDS011;70799;48.000;10.584;2023-10-08T12:53:14;8.20;;;2.10;;
81336;SDS011;70799;48.000;10.584;2023-10-08T12:55:56;10.02;;;1.77;;
81336;SDS011;70799;48.000;10.584;2023-10-08T12:58:47;7.57;;;2.50;;
81336;SDS011;70799;48.000;10.584;2023-10-08T13:01:26;10.55;;;2.25;;
81336;SDS011;70799;48.000;10.584;2023-10-08T13:04:04;11.35;;;2.38;;
81336;SDS011;70799;48.000;10.584;2023-10-08T13:06:48;10.57;;;4.18;;
81336;SDS011;70799;48.000;10.584;2023-10-08T13:09:32;13.80;;;3.50;;
81336;SDS011;70799;48.000;10.584;2023-10-08T13:12:09;8.65;;;3.28;;
81336;SDS011;70799;48.000;10.584;2023-10-08T13:14:54;14.93;;;3.65;;
81336;SDS011;70799;48.000;10.584;2023-10-08T13:17:33;11.73;;;2.72;;
81336;SDS011;70799;48.000;10.584;2023-10-08T13:20:11;16.52;;;3.58;;
81336;SDS011;70799;48.000;10.584;2023-10-08T13:22:50;10.70;;;2.65;;
81336;SDS011;70799;48.000;10.584;2023-10-08T13:25:50;7.70;;;2.35;;
81336;SDS011;70799;48.000;10.584;2023-10-08T13:28:26;11.95;;;2.25;;
81336;SDS011;70799;48.000;10.584;2023-10-08T13:31:18;10.40;;;2.60;;
81336;SDS011;70799;48.000;10.584;2023-10-08T13:33:57;15.10;;;2.35;;
81336;SDS011;70799;48.000;10.584;2023-10-08T13:36:55;10.10;;;2.53;;
81336;SDS011;70799;48.000;10.584;2023-10-08T13:39:32;10.70;;;2.63;;
81336;SDS011;70799;48.000;10.584;2023-10-08T13:42:12;10.38;;;2.13;;
81336;SDS011;70799;48.000;10.584;2023-10-08T13:44:56;10.70;;;2.55;;
81336;SDS011;70799;48.000;10.584;2023-10-08T13:47:43;12.57;;;3.42;;
81336;SDS011;70799;48.000;10.584;2023-10-08T13:50:19;8.38;;;2.45;;
81336;SDS011;70799;48.000;10.584;2023-10-08T13:52:56;13.60;;;2.85;;
81336;SDS011;70799;48.000;10.584;2023-10-08T13:55:33;10.45;;;2.60;;
81336;SDS011;70799;48.000;10.584;2023-10-08T13:58:10;10.10;;;3.85;;
81336;SDS011;70799;48.000;10.584;2023-10-08T14:00:46;16.98;;;5.35;;
81336;SDS011;70799;48.000;10.584;2023-10-08T14:03:25;14.82;;;3.13;;
81336;SDS011;70799;48.000;10.584;2023-10-08T14:06:06;20.55;;;6.25;;
81336;SDS011;70799;48.000;10.584;2023-10-08T14:09:12;10.80;;;2.78;;
81336;SDS011;70799;48.000;10.584;2023-10-08T14:11:53;15.48;;;2.83;;
81336;SDS011;70799;48.000;10.584;2023-10-08T14:17:38;17.40;;;6.70;;
81336;SDS011;70799;48.000;10.584;2023-10-08T14:20:20;16.10;;;5.40;;
81336;SDS011;70799;48.000;10.584;2023-10-08T14:23:04;14.68;;;2.97;;
81336;SDS011;70799;48.000;10.584;2023-10-08T14:25:55;12.18;;;3.00;;
81336;SDS011;70799;48.000;10.584;2023-10-08T14:28:37;11.60;;;2.92;;
81336;SDS011;70799;48.000;10.584;2023-10-08T14:31:23;16.25;;;2.80;;
81336;SDS011;70799;48.000;10.584;2023-10-08T14:34:04;9.88;;;3.00;;
81336;SDS011;70799;48.000;10.584;2023-10-08T14:36:51;10.05;;;2.55;;
81336;SDS011;70799;48.000;10.584;2023-10-08T14:39:39;14.73;;;2.50;;
81336;SDS011;70799;48.000;10.584;2023-10-08T14:42:28;12.07;;;2.20;;
81336;SDS011;70799;48.000;10.584;2023-10-08T14:45:17;10.93;;;2.30;;
81336;SDS011;70799;48.000;10.584;2023-10-08T14:47:55;11.63;;;2.60;;
81336;SDS011;70799;48.000;10.584;2023-10-08T14:50:34;12.35;;;2.83;;
81336;SDS011;70799;48.000;10.584;2023-10-08T14:53:11;8.35;;;2.13;;
81336;SDS011;70799;48.000;10.584;2023-10-08T14:55:47;13.48;;;2.47;;
81336;SDS011;70799;48.000;10.584;2023-10-08T14:58:23;15.38;;;3.38;;
81336;SDS011;70799;48.000;10.584;2023-10-08T15:01:01;14.27;;;3.47;;
81336;SDS011;70799;48.000;10.584;2023-10-08T15:03:39;13.20;;;2.85;;
81336;SDS011;70799;48.000;10.584;2023-10-08T15:06:19;12.45;;;3.20;;
81336;SDS011;70799;48.000;10.584;2023-10-08T15:08:55;11.68;;;1.90;;
81336;SDS011;70799;48.000;10.584;2023-10-08T15:11:33;11.00;;;2.72;;
81336;SDS011;70799;48.000;10.584;2023-10-08T15:14:11;14.23;;;2.80;;
81336;SDS011;70799;48.000;10.584;2023-10-08T15:16:48;13.68;;;2.95;;
81336;SDS011;70799;48.000;10.584;2023-10-08T15:19:27;12.52;;;2.72;;
81336;SDS011;70799;48.000;10.584;2023-10-08T15:22:04;13.73;;;2.60;;
81336;SDS011;70799;48.000;10.584;2023-10-08T15:24:40;15.73;;;2.75;;
81336;SDS011;70799;48.000;10.584;2023-10-08T15:27:17;15.05;;;2.72;;
81336;SDS011;70799;48.000;10.584;2023-10-08T15:29:54;13.40;;;2.10;;
81336;SDS011;70799;48.000;10.584;2023-10-08T15:32:30;14.20;;;3.40;;
81336;SDS011;70799;48.000;10.584;2023-10-08T15:35:10;14.32;;;3.17;;
81336;SDS011;70799;48.000;10.584;2023-10-08T15:40:24;13.55;;;2.15;;
81336;SDS011;70799;48.000;10.584;2023-10-08T15:43:02;14.73;;;3.10;;
81336;SDS011;70799;48.000;10.584;2023-10-08T15:45:42;14.13;;;3.72;;
81336;SDS011;70799;48.000;10.584;2023-10-08T15:48:18;14.27;;;3.00;;
81336;SDS011;70799;48.000;10.584;2023-10-08T15:50:54;12.45;;;2.55;;
81336;SDS011;70799;48.000;10.584;2023-10-08T15:53:30;13.32;;;2.97;;
81336;SDS011;70799;48.000;10.584;2023-10-08T15:56:07;14.82;;;3.22;;
81336;SDS011;70799;48.000;10.584;2023-10-08T15:58:43;14.23;;;3.25;;
81336;SDS011;70799;48.000;10.584;2023-10-08T16:01:22;13.93;;;3.42;;
81336;SDS011;70799;48.000;10.584;2023-10-08T16:03:58;18.52;;;3.33;;
81336;SDS011;70799;48.000;10.584;2023-10-08T16:06:40;14.55;;;2.75;;
81336;SDS011;70799;48.000;10.584;2023-10-08T16:09:23;16.58;;;2.78;;